Time;durP1;ratioP1;P1;durP2;ratioP2;P2;SDS_P1;SDS_P2;PMS_P1;PMS_P2;Temp;Humidity;BMP_temperature;BMP_pressure;BME280_temperature;BME280_humidity;BME280_pressure;Samples;Min_cycle;Max_cycle;Signal;HPM_P1;HPM_P2
2020/12/20 00:00:06;;;;;;;51.92;21.98;;;;;;;6.25;86.03;100312.84;5103815;28;20020;-72
2020/12/20 00:02:31;;;;;;;60.67;26.42;;;;;;;6.01;87.06;100322.06;5103515;28;20155;-73
2020/12/20 00:04:56;;;;;;;63.28;26.55;;;;;;;5.97;87.20;100334.09;5103765;28;20427;-73
2020/12/20 00:07:22;;;;;;;54.83;22.20;;;;;;;5.93;87.65;100343.50;5103202;28;20020;-71
2020/12/20 00:09:47;;;;;;;56.55;21.05;;;;;;;5.90;87.40;100334.88;5101642;28;20339;-71
2020/12/20 00:12:12;;;;;;;64.93;27.92;;;;;;;5.77;87.66;100344.19;5103387;28;20190;-71
2020/12/20 00:14:38;;;;;;;72.65;28.33;;;;;;;5.93;87.31;100342.63;5102042;28;20022;-70
2020/12/20 00:17:07;;;;;;;60.30;25.67;;;;;;;5.92;87.55;100341.78;5103387;28;20199;-72
2020/12/20 00:19:33;;;;;;;51.55;21.95;;;;;;;5.87;87.71;100333.13;5101681;28;20020;-72
2020/12/20 00:22:19;;;;;;;58.30;20.13;;;;;;;5.87;87.91;100332.25;5103235;28;20028;-72
2020/12/20 00:24:45;;;;;;;48.42;20.88;;;;;;;5.78;88.10;100330.47;5102951;28;20589;-72
2020/12/20 00:27:10;;;;;;;53.55;20.90;;;;;;;5.85;87.79;100327.09;5103134;28;20028;-71
2020/12/20 00:29:37;;;;;;;44.92;17.20;;;;;;;5.82;87.92;100329.66;5102864;28;20019;-69
2020/12/20 00:32:06;;;;;;;44.35;17.92;;;;;;;5.83;87.94;100334.81;5103129;28;20020;-71
2020/12/20 00:34:32;;;;;;;35.17;15.45;;;;;;;5.87;87.63;100337.41;5103108;28;20024;-70
2020/12/20 00:36:58;;;;;;;47.10;18.45;;;;;;;5.74;88.14;100337.28;5102998;28;20020;-71
2020/12/20 00:39:24;;;;;;;47.13;20.60;;;;;;;5.67;88.39;100338.09;5102861;28;20067;-73
2020/12/20 00:41:55;;;;;;;45.78;18.83;;;;;;;5.74;88.24;100339.88;5107261;28;20452;-75
2020/12/20 00:44:22;;;;;;;41.88;18.20;;;;;;;5.76;88.12;100342.47;5106807;28;20098;-74
2020/12/20 00:46:48;;;;;;;34.53;14.45;;;;;;;5.85;87.86;100344.28;5107129;28;20437;-73
2020/12/20 00:49:14;;;;;;;33.92;15.40;;;;;;;5.68;88.63;100351.00;5106920;28;20240;-71
2020/12/20 00:51:39;;;;;;;35.08;15.23;;;;;;;5.72;88.43;100351.84;5106955;28;20050;-71
2020/12/20 00:54:05;;;;;;;38.03;16.17;;;;;;;5.68;88.72;100355.25;5106702;28;20024;-72
2020/12/20 00:56:32;;;;;;;36.72;15.68;;;;;;;5.70;88.66;100343.28;5106922;28;20024;-73
2020/12/20 00:58:58;;;;;;;39.35;15.07;;;;;;;5.70;88.73;100346.69;5106512;28;20020;-74
2020/12/20 01:01:23;;;;;;;30.35;12.73;;;;;;;5.73;88.99;100351.03;5106843;28;20053;-73
2020/12/20 01:03:49;;;;;;;26.05;11.65;;;;;;;5.70;89.07;100358.72;5104961;28;20074;-72
2020/12/20 01:06:18;;;;;;;35.80;15.50;;;;;;;5.67;88.96;100349.25;5106727;28;20024;-72
2020/12/20 01:08:44;;;;;;;38.00;15.48;;;;;;;5.72;89.05;100356.16;5105825;28;20032;-71
2020/12/20 01:11:10;;;;;;;31.92;13.95;;;;;;;5.68;89.27;100363.88;5106571;28;20024;-70
2020/12/20 01:13:36;;;;;;;40.67;16.38;;;;;;;5.74;89.09;100370.78;5106566;28;20043;-69
2020/12/20 01:16:03;;;;;;;51.67;16.77;;;;;;;5.72;89.03;100363.91;5106464;28;20468;-70
2020/12/20 01:18:28;;;;;;;39.47;15.93;;;;;;;5.71;89.37;100365.59;5106321;28;20032;-70
2020/12/20 01:20:53;;;;;;;38.28;14.65;;;;;;;5.74;89.36;100369.91;5106802;28;20051;-69
2020/12/20 01:23:19;;;;;;;25.30;11.70;;;;;;;5.80;89.14;100377.69;5106607;28;20031;-69
2020/12/20 01:25:44;;;;;;;37.92;15.73;;;;;;;5.77;89.18;100380.25;5106238;28;20087;-68
2020/12/20 01:28:09;;;;;;;38.90;15.80;;;;;;;5.75;89.36;100379.38;5106583;28;20027;-68
2020/12/20 01:30:35;;;;;;;39.22;15.38;;;;;;;5.77;89.38;100383.69;5106472;28;20078;-69
2020/12/20 01:33:00;;;;;;;43.05;16.77;;;;;;;5.75;89.51;100376.81;5106475;28;20020;-70
2020/12/20 01:35:25;;;;;;;45.08;16.85;;;;;;;5.85;89.09;100364.91;5106570;28;20016;-68
2020/12/20 01:37:51;;;;;;;48.15;18.48;;;;;;;5.83;89.33;100368.31;5106357;28;20020;-68
2020/12/20 01:40:16;;;;;;;55.40;18.50;;;;;;;5.78;89.55;100372.53;5105264;28;20031;-70
2020/12/20 01:42:42;;;;;;;53.67;20.88;;;;;;;5.81;89.65;100369.16;5105604;28;20024;-70
2020/12/20 01:45:07;;;;;;;59.92;19.65;;;;;;;5.79;89.97;100374.28;5106221;28;20452;-69
2020/12/20 01:47:33;;;;;;;58.42;22.00;;;;;;;5.83;89.72;100370.88;5105931;28;20089;-69
2020/12/20 01:50:00;;;;;;;43.55;18.20;;;;;;;5.93;89.43;100373.53;5106046;28;20024;-70
2020/12/20 01:52:27;;;;;;;67.25;22.42;;;;;;;5.85;89.83;100368.31;5104371;28;20153;-70
2020/12/20 01:54:54;;;;;;;66.20;23.95;;;;;;;5.94;89.64;100371.00;5104820;28;20042;-71
2020/12/20 01:57:20;;;;;;;71.07;24.67;;;;;;;5.89;90.06;100375.25;5104542;28;20089;-69
2020/12/20 01:59:46;;;;;;;60.95;19.85;;;;;;;6.03;89.54;100377.09;5105119;28;20110;-70
2020/12/20 02:02:12;;;;;;;64.88;22.45;;;;;;;5.96;89.84;100381.31;5105928;28;20032;-70
2020/12/20 02:04:38;;;;;;;60.38;22.73;;;;;;;5.92;90.16;100376.97;5103545;28;20113;-70
2020/12/20 02:07:04;;;;;;;66.65;23.35;;;;;;;5.97;90.29;100377.03;5105591;28;20484;-70
2020/12/20 02:09:29;;;;;;;77.18;26.00;;;;;;;6.04;89.88;100376.22;5103618;28;20086;-69
2020/12/20 02:12:04;;;;;;;80.10;26.85;;;;;;;6.10;89.64;100372.91;5103469;28;20043;-69
2020/12/20 02:14:30;;;;;;;98.65;30.08;;;;;;;6.09;89.93;100381.50;5104246;28;20039;-70
2020/12/20 02:16:56;;;;;;;104.40;31.65;;;;;;;6.04;90.28;100373.66;5105494;28;20024;-71
2020/12/20 02:19:22;;;;;;;103.60;30.77;;;;;;;6.25;89.42;100367.88;5105306;28;20020;-70
2020/12/20 02:21:47;;;;;;;55.78;16.45;;;;;;;6.14;90.01;100380.66;5105584;28;20028;-73
2020/12/20 02:24:13;;;;;;;145.00;37.67;;;;;;;6.12;90.24;100382.34;5103607;28;20073;-73
2020/12/20 02:26:38;;;;;;;148.13;41.45;;;;;;;6.19;90.12;100381.59;5105482;28;20047;-72
2020/12/20 02:29:03;;;;;;;165.88;38.08;;;;;;;6.19;90.21;100379.00;5104878;28;20028;-72
2020/12/20 02:31:29;;;;;;;197.30;44.33;;;;;;;6.22;90.32;100379.88;5105147;28;20038;-72
2020/12/20 02:33:55;;;;;;;157.40;37.72;;;;;;;6.29;90.12;100379.09;5105146;28;20046;-72
2020/12/20 02:36:20;;;;;;;167.63;37.65;;;;;;;6.22;90.50;100369.56;5104933;28;20074;-72
2020/12/20 02:38:45;;;;;;;297.60;55.97;;;;;;;6.27;90.27;100373.91;5104813;28;20031;-71
2020/12/20 02:41:11;;;;;;;319.10;58.25;;;;;;;6.25;90.47;100377.31;5105325;28;20016;-72
2020/12/20 02:43:36;;;;;;;231.18;51.58;;;;;;;6.29;90.64;100376.50;5105069;28;20051;-71
2020/12/20 02:46:02;;;;;;;209.45;50.58;;;;;;;6.37;90.35;100385.19;5105013;28;20028;-70
2020/12/20 02:48:28;;;;;;;246.20;54.83;;;;;;;6.39;90.47;100383.47;5104808;28;20060;-70
2020/12/20 02:50:53;;;;;;;243.20;53.78;;;;;;;6.42;90.53;100380.91;5105010;28;20080;-70
2020/12/20 02:53:18;;;;;;;205.15;46.03;;;;;;;6.47;90.52;100382.69;5105097;28;20032;-71
2020/12/20 02:55:44;;;;;;;223.32;51.35;;;;;;;6.47;90.36;100377.53;5104620;28;20035;-70
2020/12/20 02:58:09;;;;;;;183.10;47.65;;;;;;;6.52;90.28;100376.69;5103478;28;20047;-71
2020/12/20 03:00:36;;;;;;;195.65;46.70;;;;;;;6.57;90.03;100367.28;5104794;28;20012;-70
2020/12/20 03:03:02;;;;;;;189.77;49.85;;;;;;;6.58;90.26;100375.91;5104139;28;20129;-70
2020/12/20 03:05:28;;;;;;;207.73;51.58;;;;;;;6.58;90.24;100381.06;5104692;28;20032;-70
2020/12/20 03:07:53;;;;;;;172.57;47.88;;;;;;;6.54;90.46;100369.84;5104510;28;20054;-70
2020/12/20 03:10:18;;;;;;;146.35;39.50;;;;;;;6.60;90.57;100373.31;5104114;28;20472;-70
2020/12/20 03:12:44;;;;;;;221.63;52.33;;;;;;;6.67;90.46;100381.13;5104694;28;20237;-70
2020/12/20 03:15:10;;;;;;;96.78;26.48;;;;;;;6.72;90.22;100377.69;5104334;28;20041;-69
2020/12/20 03:17:36;;;;;;;130.85;39.60;;;;;;;6.73;90.36;100385.44;5104218;28;20411;-72
2020/12/20 03:20:03;;;;;;;150.50;44.05;;;;;;;6.70;90.28;100380.25;5104106;28;20024;-70
2020/12/20 03:22:29;;;;;;;153.82;46.83;;;;;;;6.73;90.48;100387.16;5104314;28;20036;-70
2020/12/20 03:24:54;;;;;;;123.53;40.83;;;;;;;6.73;90.55;100385.44;5102521;28;20024;-70
2020/12/20 03:27:19;;;;;;;122.55;39.25;;;;;;;6.78;90.20;100396.66;5104082;28;20087;-69
2020/12/20 03:29:45;;;;;;;142.50;42.58;;;;;;;6.76;90.25;100395.78;5103840;28;20028;-70
2020/12/20 03:32:10;;;;;;;120.10;38.10;;;;;;;6.76;90.52;100405.22;5104093;28;20103;-70
2020/12/20 03:34:36;;;;;;;132.65;40.42;;;;;;;6.78;90.38;100404.41;5104139;28;20020;-69
2020/12/20 03:37:01;;;;;;;155.55;43.10;;;;;;;6.75;90.46;100404.38;5103533;28;20024;-70
2020/12/20 03:39:26;;;;;;;124.00;43.50;;;;;;;6.80;90.56;100407.00;5103523;28;20027;-69
2020/12/20 03:41:52;;;;;;;131.50;44.28;;;;;;;6.79;90.51;100405.25;5104054;28;20024;-69
2020/12/20 03:44:17;;;;;;;106.90;38.15;;;;;;;6.85;90.53;100407.03;5103772;28;20024;-69
2020/12/20 03:46:43;;;;;;;107.15;36.38;;;;;;;6.86;90.58;100401.88;5103946;28;20039;-69
2020/12/20 03:49:08;;;;;;;158.63;49.42;;;;;;;6.88;90.65;100399.31;5103959;28;20028;-70
2020/12/20 03:51:34;;;;;;;134.77;44.78;;;;;;;6.92;90.49;100398.47;5103847;28;20051;-70
2020/12/20 03:53:59;;;;;;;139.55;41.83;;;;;;;6.90;90.67;100408.78;5103501;28;20024;-69
2020/12/20 03:56:24;;;;;;;132.20;45.65;;;;;;;6.95;90.45;100398.47;5102231;28;20080;-70
2020/12/20 03:58:50;;;;;;;105.50;35.00;;;;;;;6.96;90.50;100412.25;5103683;28;20028;-70
2020/12/20 04:01:15;;;;;;;149.98;46.05;;;;;;;6.97;90.39;100409.69;5102329;28;20043;-71
2020/12/20 04:03:40;;;;;;;126.72;41.30;;;;;;;6.97;90.53;100406.22;5103695;28;20044;-71
2020/12/20 04:06:07;;;;;;;140.40;44.80;;;;;;;6.97;90.37;100401.06;5103704;28;20024;-70
2020/12/20 04:08:32;;;;;;;125.38;42.85;;;;;;;6.98;90.21;100415.72;5103369;28;20035;-71
2020/12/20 04:10:58;;;;;;;112.22;43.58;;;;;;;7.00;90.11;100414.00;5103273;28;20020;-71
2020/12/20 04:13:23;;;;;;;87.93;29.00;;;;;;;6.98;89.73;100405.41;5103747;28;20050;-71
2020/12/20 04:15:48;;;;;;;104.38;38.10;;;;;;;6.86;89.80;100412.19;5106421;28;20450;-71
2020/12/20 04:18:14;;;;;;;122.13;42.78;;;;;;;6.84;90.01;100419.06;5107954;28;20432;-72
2020/12/20 04:20:39;;;;;;;124.55;44.05;;;;;;;6.82;89.88;100423.38;5107760;28;20039;-72
2020/12/20 04:23:04;;;;;;;123.88;42.17;;;;;;;6.76;90.11;100426.75;5107694;28;20180;-72
2020/12/20 04:25:30;;;;;;;106.35;38.25;;;;;;;6.78;90.22;100437.97;5107427;28;20028;-73
2020/12/20 04:27:55;;;;;;;118.88;40.38;;;;;;;6.79;90.12;100431.06;5107542;28;20061;-72
2020/12/20 04:30:20;;;;;;;110.50;39.67;;;;;;;6.80;90.25;100419.91;5107410;28;20036;-71
2020/12/20 04:32:46;;;;;;;123.13;43.38;;;;;;;6.81;90.32;100422.50;5107848;28;20024;-71
2020/12/20 04:35:11;;;;;;;99.95;36.95;;;;;;;6.91;89.98;100419.97;5106474;28;20028;-71
2020/12/20 04:37:36;;;;;;;93.32;35.65;;;;;;;6.89;89.83;100416.50;5107442;28;20024;-72
2020/12/20 04:40:03;;;;;;;99.70;37.65;;;;;;;6.94;89.88;100417.41;5107184;28;20077;-73
2020/12/20 04:42:29;;;;;;;98.18;36.65;;;;;;;7.02;89.47;100431.25;5107466;28;20024;-72
2020/12/20 04:44:55;;;;;;;95.55;34.05;;;;;;;6.93;89.96;100424.28;5107275;28;20016;-72
2020/12/20 04:47:22;;;;;;;107.80;38.90;;;;;;;6.94;89.94;100426.03;5107464;28;20372;-71
2020/12/20 04:49:48;;;;;;;93.70;35.95;;;;;;;6.95;89.77;100424.28;5107000;28;20020;-70
2020/12/20 04:52:14;;;;;;;87.10;29.92;;;;;;;6.97;89.94;100416.56;5107012;28;20111;-70
2020/12/20 04:54:40;;;;;;;94.65;36.58;;;;;;;7.01;89.90;100410.59;5106455;28;20032;-70
2020/12/20 04:57:06;;;;;;;103.82;37.20;;;;;;;7.07;89.65;100418.38;5107064;28;20059;-70
2020/12/20 04:59:33;;;;;;;103.03;37.38;;;;;;;7.06;89.89;100422.66;5106817;28;20020;-71
2020/12/20 05:01:58;;;;;;;103.93;37.85;;;;;;;7.04;90.10;100429.53;5106988;28;20031;-71
2020/12/20 05:04:24;;;;;;;105.38;39.53;;;;;;;7.08;90.06;100430.41;5106765;28;20047;-71
2020/12/20 05:06:49;;;;;;;94.07;34.80;;;;;;;7.12;90.14;100424.44;5106973;28;20138;-71
2020/12/20 05:09:15;;;;;;;101.72;35.97;;;;;;;7.12;90.11;100421.84;5106385;28;20024;-71
2020/12/20 05:11:43;;;;;;;89.03;26.80;;;;;;;7.15;89.90;100421.00;5106676;28;20028;-71
2020/12/20 05:14:12;;;;;;;107.78;40.67;;;;;;;7.21;89.59;100425.31;5106802;28;20020;-71
2020/12/20 05:16:39;;;;;;;97.57;38.05;;;;;;;7.32;89.22;100426.25;5106655;28;20016;-70
2020/12/20 05:19:06;;;;;;;102.85;37.70;;;;;;;7.27;89.55;100430.50;5106402;28;20016;-71
2020/12/20 05:21:32;;;;;;;95.13;33.20;;;;;;;7.21;89.38;100423.59;5106369;28;20047;-71
2020/12/20 05:23:58;;;;;;;130.50;40.05;;;;;;;7.22;89.28;100408.97;5106248;28;20084;-71
2020/12/20 05:26:33;;;;;;;98.10;38.38;;;;;;;7.19;89.45;100422.72;5106288;28;20031;-70
2020/12/20 05:29:09;;;;;;;99.32;38.25;;;;;;;7.19;89.47;100427.88;5106319;28;20020;-71
2020/12/20 05:31:34;;;;;;;89.30;30.92;;;;;;;7.09;89.61;100426.13;5106213;28;20504;-71
2020/12/20 05:34:00;;;;;;;103.72;40.50;;;;;;;7.13;89.72;100430.44;5104758;28;20096;-71
2020/12/20 05:36:27;;;;;;;105.63;40.20;;;;;;;7.14;89.58;100434.75;5106149;28;20034;-70
2020/12/20 05:38:52;;;;;;;113.07;42.50;;;;;;;7.17;89.77;100438.19;5105610;28;20055;-71
2020/12/20 05:41:30;;;;;;;133.38;44.15;;;;;;;7.17;89.75;100437.38;5104957;28;20020;-70
2020/12/20 05:44:19;;;;;;;114.30;41.50;;;;;;;7.22;89.58;100447.72;5105218;28;20075;-71
2020/12/20 05:46:45;;;;;;;109.95;38.22;;;;;;;7.18;89.40;100434.78;5106000;28;20425;-70
2020/12/20 05:49:15;;;;;;;104.50;35.97;;;;;;;7.18;89.68;100452.88;5105888;28;20117;-71
2020/12/20 05:52:00;;;;;;;128.75;42.15;;;;;;;7.17;89.68;100458.03;5105789;28;20445;-71
2020/12/20 05:54:30;;;;;;;85.78;31.65;;;;;;;7.20;89.47;100458.03;5105350;28;20097;-70
2020/12/20 05:57:20;;;;;;;105.25;36.90;;;;;;;7.18;89.71;100465.78;5105909;28;20020;-70
2020/12/20 05:59:48;;;;;;;106.65;38.65;;;;;;;7.21;89.60;100453.72;5105670;28;20020;-73
2020/12/20 06:02:14;;;;;;;114.63;38.80;;;;;;;7.21;89.81;100461.47;5105443;28;20027;-71
2020/12/20 06:04:41;;;;;;;113.20;39.60;;;;;;;7.19;89.72;100444.25;5105448;28;20073;-72
2020/12/20 06:07:08;;;;;;;100.75;36.53;;;;;;;7.23;89.46;100454.59;5105548;28;20031;-72
2020/12/20 06:09:47;;;;;;;91.40;32.70;;;;;;;7.22;89.43;100453.72;5105128;28;20020;-72
2020/12/20 06:12:20;;;;;;;114.40;40.53;;;;;;;7.19;89.52;100452.00;5105701;28;20032;-74
2020/12/20 06:14:46;;;;;;;107.20;39.58;;;;;;;7.23;89.64;100452.00;5105481;28;20030;-73
2020/12/20 06:17:18;;;;;;;114.03;37.95;;;;;;;7.26;89.29;100450.31;5105554;28;20024;-73
2020/12/20 06:19:50;;;;;;;103.00;38.80;;;;;;;7.15;89.47;100447.69;5105290;28;20404;-73
2020/12/20 06:22:27;;;;;;;96.97;36.28;;;;;;;7.16;89.41;100458.84;5105327;28;20020;-73
2020/12/20 06:24:55;;;;;;;72.07;25.83;;;;;;;7.14;89.69;100455.41;5105223;28;20028;-74
2020/12/20 06:27:23;;;;;;;80.72;27.23;;;;;;;7.19;89.47;100461.44;5105142;28;20083;-74
2020/12/20 06:30:00;;;;;;;102.22;39.00;;;;;;;7.09;89.28;100449.34;5104968;28;20027;-75
2020/12/20 06:32:46;;;;;;;95.25;38.67;;;;;;;7.10;89.77;100458.81;5105265;28;20038;-74
2020/12/20 06:35:22;;;;;;;110.45;40.15;;;;;;;7.10;89.44;100464.84;5105065;28;20095;-77
2020/12/20 06:37:49;;;;;;;87.50;30.75;;;;;;;7.08;89.67;100469.13;5102842;28;20037;-75
2020/12/20 06:40:38;;;;;;;96.78;34.45;;;;;;;7.07;89.96;100463.13;5104499;28;20020;-74
2020/12/20 06:43:04;;;;;;;79.45;27.50;;;;;;;7.07;89.93;100455.38;5103472;28;20028;-74
2020/12/20 06:45:33;;;;;;;82.75;33.55;;;;;;;7.06;89.76;100460.53;5104761;28;20039;-75
2020/12/20 06:48:03;;;;;;;96.53;38.90;;;;;;;7.13;89.70;100466.56;5104582;28;20081;-74
2020/12/20 06:50:37;;;;;;;51.42;21.58;;;;;;;7.14;89.89;100471.75;5104559;28;20020;-75
2020/12/20 06:53:04;;;;;;;96.13;36.08;;;;;;;7.18;89.73;100475.22;5104510;28;20102;-77
2020/12/20 06:55:29;;;;;;;74.13;27.67;;;;;;;7.14;89.71;100468.31;5102938;28;20024;-77
2020/12/20 06:58:09;;;;;;;97.90;38.50;;;;;;;7.23;89.54;100478.72;5104512;28;20031;-75
2020/12/20 07:00:48;;;;;;;93.22;38.08;;;;;;;7.22;89.48;100476.97;5104562;28;20094;-75
2020/12/20 07:03:23;;;;;;;93.80;35.97;;;;;;;7.24;89.62;100470.09;5104200;28;20048;-74
2020/12/20 07:05:49;;;;;;;76.60;28.73;;;;;;;7.23;89.50;100462.34;5104391;28;20038;-74
2020/12/20 07:08:30;;;;;;;84.22;30.13;;;;;;;7.30;89.06;100469.28;5104239;28;20052;-74
2020/12/20 07:10:58;;;;;;;87.20;33.63;;;;;;;7.31;88.94;100481.34;5103865;28;20505;-76
2020/12/20 07:13:35;;;;;;;99.47;38.90;;;;;;;7.24;89.22;100490.75;5104259;28;20089;-73
2020/12/20 07:16:08;;;;;;;92.63;36.47;;;;;;;7.22;89.30;100484.72;5104074;28;20020;-73
2020/12/20 07:18:53;;;;;;;96.57;38.95;;;;;;;7.22;89.45;100478.72;5104207;28;20019;-72
2020/12/20 07:21:19;;;;;;;82.88;34.38;;;;;;;7.25;89.35;100484.72;5104164;28;20119;-74
2020/12/20 07:23:52;;;;;;;88.35;36.60;;;;;;;7.27;89.66;100479.56;5104244;28;20024;-79
2020/12/20 07:26:18;;;;;;;74.78;29.48;;;;;;;7.28;89.18;100481.31;5103860;28;20027;-71
2020/12/20 07:28:44;;;;;;;88.82;37.22;;;;;;;7.16;89.37;100466.59;5103849;28;20042;-77
2020/12/20 07:31:14;;;;;;;96.70;37.80;;;;;;;7.30;89.23;100480.47;5103782;28;20027;-75
2020/12/20 07:33:40;;;;;;;77.32;27.67;;;;;;;7.41;88.36;100482.28;5103852;28;20034;-71
2020/12/20 07:36:06;;;;;;;89.80;34.75;;;;;;;7.27;88.73;100487.31;5103844;28;20020;-77
2020/12/20 07:38:31;;;;;;;86.72;35.00;;;;;;;7.22;89.12;100494.19;5103554;28;20110;-74
2020/12/20 07:40:57;;;;;;;77.28;31.85;;;;;;;7.22;88.97;100487.28;5103469;28;20024;-73
2020/12/20 07:43:23;;;;;;;101.10;38.15;;;;;;;7.21;89.25;100489.88;5103620;28;20047;-76
2020/12/20 07:46:02;;;;;;;96.20;39.17;;;;;;;7.21;89.11;100500.19;5104089;28;20081;-75
2020/12/20 07:48:31;;;;;;;92.30;38.90;;;;;;;7.17;89.14;100502.75;5103513;28;20085;-76
2020/12/20 07:51:19;;;;;;;94.47;39.63;;;;;;;7.18;89.23;100508.78;5102857;28;20032;-78
2020/12/20 07:53:46;;;;;;;73.10;29.10;;;;;;;7.19;89.12;100515.69;5104026;28;20031;-76
2020/12/20 07:56:43;;;;;;;94.70;34.58;;;;;;;7.25;88.74;100514.88;5103186;28;20404;-79
2020/12/20 07:59:16;;;;;;;99.78;38.55;;;;;;;7.14;89.06;100514.81;5103529;28;20158;-77
2020/12/20 08:01:45;;;;;;;104.47;39.85;;;;;;;7.19;89.04;100523.41;5102081;28;20032;-78
2020/12/20 08:04:16;;;;;;;93.40;36.38;;;;;;;7.14;88.97;100512.22;5101885;28;20415;-78
2020/12/20 08:06:43;;;;;;;74.70;28.25;;;;;;;7.18;88.92;100522.59;5102156;28;20047;-76
2020/12/20 08:09:08;;;;;;;94.53;38.55;;;;;;;7.15;88.98;100524.25;5103131;28;20032;-73
2020/12/20 08:11:34;;;;;;;73.53;29.15;;;;;;;7.22;88.97;100527.78;5102925;28;20369;-75
2020/12/20 08:14:05;;;;;;;67.80;25.90;;;;;;;7.21;88.56;100532.06;5101944;28;20026;-78
2020/12/20 08:16:33;;;;;;;86.37;34.80;;;;;;;7.17;88.41;100528.56;5103346;28;20078;-77
2020/12/20 08:19:20;;;;;;;85.28;33.55;;;;;;;7.19;88.88;100534.63;5103110;28;20265;-77
2020/12/20 08:22:07;;;;;;;89.72;34.70;;;;;;;7.20;88.47;100535.50;5103346;28;20075;-76
2020/12/20 08:24:38;;;;;;;81.95;31.00;;;;;;;7.17;88.89;100533.75;5101656;28;20029;-75
2020/12/20 08:27:30;;;;;;;87.90;34.97;;;;;;;7.17;88.80;100530.31;5102941;28;20020;-76
2020/12/20 08:30:00;;;;;;;85.90;36.38;;;;;;;7.22;88.49;100527.78;5100656;28;20367;-75
2020/12/20 08:32:36;;;;;;;73.25;31.80;;;;;;;7.21;88.57;100541.50;5103065;28;20077;-75
2020/12/20 08:35:19;;;;;;;72.80;34.60;;;;;;;7.21;88.73;100546.66;5103248;28;20032;-77
2020/12/20 08:37:44;;;;;;;;;;;;;;;7.25;88.92;100548.44;5103745;28;20020;-76
2020/12/20 08:40:15;;;;;;;84.22;33.75;;;;;;;7.25;88.90;100548.44;5102896;28;20039;-75
2020/12/20 08:42:42;;;;;;;72.00;30.85;;;;;;;7.31;88.41;100545.91;5103186;28;20020;-74
2020/12/20 08:45:23;;;;;;;69.65;30.30;;;;;;;7.28;88.35;100551.94;5103294;28;20012;-74
2020/12/20 08:47:49;;;;;;;65.60;24.67;;;;;;;7.27;88.23;100545.00;5103193;28;20528;-75
2020/12/20 08:50:23;;;;;;;52.78;22.17;;;;;;;7.32;87.60;100548.50;5102859;28;20032;-76
2020/12/20 08:52:58;;;;;;;76.25;33.60;;;;;;;7.19;88.17;100562.16;5103032;28;20051;-74
2020/12/20 08:55:23;;;;;;;69.90;28.10;;;;;;;7.25;88.24;100561.34;5102777;28;20028;-74
2020/12/20 08:58:00;;;;;;;58.50;25.20;;;;;;;7.20;88.22;100558.75;5103096;28;20032;-75
2020/12/20 09:00:25;;;;;;;78.43;33.53;;;;;;;7.18;88.73;100561.31;5102980;28;20085;-76
2020/12/20 09:02:57;;;;;;;81.53;31.92;;;;;;;7.26;88.21;100557.91;5106666;28;20070;-74
2020/12/20 09:05:29;;;;;;;86.60;36.05;;;;;;;7.21;88.23;100565.63;5106906;28;20035;-75
2020/12/20 09:07:55;;;;;;;84.43;35.65;;;;;;;7.19;88.24;100563.03;5106816;28;20028;-74
2020/12/20 09:10:26;;;;;;;76.65;33.05;;;;;;;7.25;88.16;100562.19;5106352;28;20024;-74
2020/12/20 09:13:06;;;;;;;80.07;33.33;;;;;;;7.26;88.24;100565.66;5106903;28;20462;-74
2020/12/20 09:15:41;;;;;;;87.72;33.55;;;;;;;7.23;88.07;100561.34;5106662;28;20028;-74
2020/12/20 09:18:18;;;;;;;74.13;29.88;;;;;;;7.19;88.81;100552.69;5106235;28;20024;-74
2020/12/20 09:20:45;;;;;;;71.50;31.65;;;;;;;7.24;88.69;100563.06;5106357;28;20020;-75
2020/12/20 09:23:20;;;;;;;58.20;25.40;;;;;;;7.29;88.43;100563.09;5106250;28;20035;-75
2020/12/20 09:25:47;;;;;;;65.43;29.40;;;;;;;7.21;88.71;100551.84;5105856;28;20024;-74
2020/12/20 09:28:14;;;;;;;64.97;29.80;;;;;;;7.31;88.77;100551.94;5105831;28;20032;-73
2020/12/20 09:30:43;;;;;;;64.22;29.85;;;;;;;7.38;88.58;100565.75;5106008;28;20042;-63
2020/12/20 09:33:33;;;;;;;56.33;25.08;;;;;;;7.50;88.34;100565.00;5106052;28;20073;-65
2020/12/20 09:36:01;;;;;;;56.72;25.58;;;;;;;7.59;87.26;100564.16;5106161;28;20437;-65
2020/12/20 09:38:39;;;;;;;53.35;25.23;;;;;;;7.48;87.55;100569.28;5105836;28;20075;-65
2020/12/20 09:41:06;;;;;;;64.18;29.02;;;;;;;7.42;87.97;100562.34;5105598;28;20109;-64
2020/12/20 09:43:32;;;;;;;56.13;24.60;;;;;;;7.45;88.20;100574.41;5106053;28;20024;-65
2020/12/20 09:45:59;;;;;;;63.13;29.02;;;;;;;7.46;88.16;100573.56;5106153;28;20070;-65
2020/12/20 09:48:25;;;;;;;49.88;24.25;;;;;;;7.49;87.94;100564.97;5105714;28;20080;-65
2020/12/20 09:50:51;;;;;;;49.13;24.02;;;;;;;7.50;87.80;100558.94;5105563;28;20017;-68
2020/12/20 09:53:16;;;;;;;59.40;23.05;;;;;;;7.53;87.21;100566.72;5105826;28;20448;-65
2020/12/20 09:55:42;;;;;;;57.53;26.55;;;;;;;7.43;87.51;100566.66;5105197;28;20027;-65
2020/12/20 09:58:16;;;;;;;54.90;27.23;;;;;;;7.44;87.82;100570.94;5105373;28;20024;-65
2020/12/20 10:00:43;;;;;;;54.78;25.17;;;;;;;7.44;87.79;100570.94;5103960;28;20217;-64
2020/12/20 10:03:10;;;;;;;58.10;28.13;;;;;;;7.48;88.17;100579.59;5105229;28;20488;-64
2020/12/20 10:05:36;;;;;;;50.85;24.15;;;;;;;7.54;87.60;100571.88;5105347;28;20118;-65
2020/12/20 10:08:02;;;;;;;57.25;27.15;;;;;;;7.57;87.55;100573.66;5105305;28;20468;-66
2020/12/20 10:10:28;;;;;;;58.22;26.17;;;;;;;7.60;87.19;100565.91;5104819;28;20080;-65
2020/12/20 10:12:55;;;;;;;60.20;26.98;;;;;;;7.60;86.99;100573.66;5104248;28;20056;-65
2020/12/20 10:15:21;;;;;;;51.72;23.98;;;;;;;7.63;86.95;100575.41;5105104;28;20020;-65
2020/12/20 10:17:47;;;;;;;46.05;21.83;;;;;;;7.49;87.37;100568.41;5105241;28;20024;-66
2020/12/20 10:20:12;;;;;;;50.38;24.55;;;;;;;7.59;86.84;100573.66;5105027;28;20020;-64
2020/12/20 10:22:38;;;;;;;57.20;27.55;;;;;;;7.59;86.43;100574.50;5103577;28;20030;-66
2020/12/20 10:25:05;;;;;;;54.40;27.00;;;;;;;7.47;87.36;100570.13;5104641;28;20111;-66
2020/12/20 10:27:31;;;;;;;44.25;19.75;;;;;;;7.63;86.36;100571.09;5104972;28;20031;-66
2020/12/20 10:29:57;;;;;;;56.67;25.50;;;;;;;7.53;87.00;100571.88;5104659;28;20016;-67
2020/12/20 10:32:22;;;;;;;55.75;27.25;;;;;;;7.53;87.16;100569.28;5104943;28;20035;-67
2020/12/20 10:34:48;;;;;;;44.35;24.90;;;;;;;7.49;86.96;100572.72;5104750;28;20024;-67
2020/12/20 10:37:13;;;;;;;45.65;21.75;;;;;;;7.49;87.17;100572.72;5104706;28;20056;-66
2020/12/20 10:39:38;;;;;;;38.95;18.75;;;;;;;7.53;86.93;100566.72;5104320;28;20110;-67
2020/12/20 10:42:04;;;;;;;49.85;26.33;;;;;;;7.44;87.38;100568.38;5103175;28;20020;-67
2020/12/20 10:44:29;;;;;;;51.03;25.23;;;;;;;7.77;85.62;100576.34;5104405;28;20088;-66
2020/12/20 10:46:55;;;;;;;52.20;25.42;;;;;;;7.52;86.68;100577.91;5104628;28;20020;-65
2020/12/20 10:49:21;;;;;;;30.63;13.25;;;;;;;7.60;86.80;100571.09;5104162;28;20049;-66
2020/12/20 10:51:53;;;;;;;43.00;21.98;;;;;;;7.47;86.59;100575.31;5104462;28;20092;-66
2020/12/20 10:54:20;;;;;;;52.33;22.65;;;;;;;7.44;87.08;100578.72;5104194;28;20024;-67
2020/12/20 10:56:49;;;;;;;53.55;25.38;;;;;;;7.48;86.36;100579.59;5104328;28;20024;-68
2020/12/20 10:59:16;;;;;;;47.58;23.55;;;;;;;7.40;86.69;100570.94;5104264;28;20074;-69
2020/12/20 11:01:41;;;;;;;55.80;25.67;;;;;;;7.46;85.88;100576.13;5104395;28;20476;-68
2020/12/20 11:04:07;;;;;;;49.75;24.35;;;;;;;7.40;86.28;100570.94;5104000;28;20177;-68
2020/12/20 11:06:32;;;;;;;56.03;25.20;;;;;;;7.30;86.79;100567.44;5104266;28;20028;-68
2020/12/20 11:08:58;;;;;;;49.17;19.88;;;;;;;7.48;85.54;100576.16;5104222;28;20035;-69
2020/12/20 11:11:31;;;;;;;54.75;24.48;;;;;;;7.26;86.40;100576.88;5103579;28;20035;-69
2020/12/20 11:13:57;;;;;;;58.22;24.92;;;;;;;7.26;86.73;100565.66;5104022;28;20030;-69
2020/12/20 11:16:23;;;;;;;53.25;25.77;;;;;;;7.22;87.02;100566.50;5102664;28;20030;-69
2020/12/20 11:18:48;;;;;;;47.05;24.45;;;;;;;7.32;86.88;100563.13;5103888;28;20020;-70